createdAt,value
2022-11-09T00:05:17.337Z,8.80
2022-11-09T00:35:25.899Z,8.43
2022-11-09T01:05:41.596Z,9.57
2022-11-09T01:35:55.295Z,9.80
2022-11-09T02:06:09.436Z,9.83
2022-11-09T02:36:20.185Z,9.83
2022-11-09T03:06:37.266Z,9.03
2022-11-09T03:36:53.944Z,10.50
2022-11-09T04:07:03.967Z,9.80
2022-11-09T04:37:21.438Z,9.03
2022-11-09T05:07:30.316Z,9.00
2022-11-09T05:37:44.295Z,8.50
2022-11-09T06:07:53.151Z,8.03
2022-11-09T06:38:12.160Z,7.20
2022-11-09T07:08:22.159Z,6.18
2022-11-09T07:38:36.913Z,5.60
2022-11-09T08:08:45.466Z,5.18
2022-11-09T08:38:59.303Z,5.35
2022-11-09T09:09:11.404Z,4.57
2022-11-09T09:39:24.371Z,4.85
2022-11-09T10:10:03.951Z,4.00
2022-11-09T10:40:19.780Z,5.45
2022-11-09T11:10:47.142Z,5.90
2022-11-09T11:41:31.272Z,5.18
2022-11-09T12:12:15.592Z,6.28
2022-11-09T12:42:48.305Z,6.70
2022-11-09T13:13:28.244Z,6.27
2022-11-09T14:15:12.057Z,8.27
2022-11-09T14:45:39.133Z,10.23
2022-11-09T15:16:16.017Z,12.77
2022-11-09T15:46:50.827Z,15.40
2022-11-09T16:17:18.106Z,16.93
2022-11-09T16:47:48.996Z,31.43
2022-11-09T17:18:16.443Z,39.53
2022-11-09T17:48:47.134Z,36.17
2022-11-09T18:19:22.370Z,48.50
2022-11-09T18:49:53.274Z,34.57
2022-11-09T19:20:24.064Z,33.80
2022-11-09T19:51:07.870Z,39.20
2022-11-09T20:21:35.489Z,39.97
2022-11-09T20:52:02.887Z,36.73
2022-11-09T21:22:42.858Z,34.03
2022-11-09T21:53:13.033Z,28.97
2022-11-09T22:23:40.741Z,27.47
2022-11-09T22:54:11.243Z,24.37
2022-11-09T23:24:54.867Z,24.93
2022-11-09T23:55:24.503Z,27.27
